メインページ
METAR-TAF:

METAR-TAF

空港 :

新潟空港

新潟, 日本

緯度: 37-57N, 経度: 139-07E, 海抜: 1m

現時点の気象観測

当レポートは1時間0分前の11:00(UTC)に作成
北/北東の風 11kt
気温 14°C
湿度 72%
気圧 1023 hPa
視程10km以上
高度2000ftの雲はほとんどない
千切れ雲あり

METAR: RJSN 201100Z 02011KT 9999 FEW020 BKN/// 14/09 Q1023

時間: 21:00 (12:00 UTC)

予報

当レポートは55分前の11:05(UTC)に作成
予報は20日の 12時(UTC)から 21日の 18時(UTC)まで有効
の風 10kt
視程10km以上
高度3000ftの雲はほとんどない
20日の 13時(UTC)から 20日の 15時(UTC)まで徐々に
南/南東の風 4kt
21日の 00時(UTC)から 21日の 03時(UTC)まで徐々に
の風 10kt
21日の 12時(UTC)から 21日の 15時(UTC)まで徐々に
南/南東の風 4kt

TAF: RJSN 201105Z 2012/2118 01010KT 9999 FEW030 BECMG 2013/2015 16004KT BECMG 2100/2103 36010KT BECMG 2112/2115 16004KT

4,000以上の空港の気象観測と天気予報(METAR報とTAF報)

利用可能な観測所は地図上に黄色い丸と赤い丸で示す。

丸の上にカーソルを重ねると観測所名を参照できる。

次にクリックすると気象観測と天気予報を参照できる。

マップの切り替え:黒色「×」印の緑ボタンをクリックして拡大、「-」印の緑ボタンをクリックして縮小、緑色の三角印をクリックして隣りの地図に切り替え


METAR-TAF: